sensor_id;sensor_type;location;lat;lon;timestamp;P1;durP1;ratioP1;P2;durP2;ratioP2
77430;SDS011;66498;48.564;19.272;2023-03-04T00:01:35;48.10;;;22.50;;
77430;SDS011;66498;48.564;19.272;2023-03-04T00:04:01;52.58;;;25.65;;
77430;SDS011;66498;48.564;19.272;2023-03-04T00:06:26;58.90;;;27.23;;
77430;SDS011;66498;48.564;19.272;2023-03-04T00:08:52;72.45;;;31.00;;
77430;SDS011;66498;48.564;19.272;2023-03-04T00:11:18;157.85;;;52.58;;
77430;SDS011;66498;48.564;19.272;2023-03-04T00:13:43;279.23;;;89.97;;
77430;SDS011;66498;48.564;19.272;2023-03-04T00:16:09;270.33;;;93.40;;
77430;SDS011;66498;48.564;19.272;2023-03-04T00:18:34;188.40;;;67.07;;
77430;SDS011;66498;48.564;19.272;2023-03-04T00:21:00;151.30;;;56.97;;
77430;SDS011;66498;48.564;19.272;2023-03-04T00:23:25;86.43;;;35.35;;
77430;SDS011;66498;48.564;19.272;2023-03-04T00:25:51;63.53;;;27.80;;
77430;SDS011;66498;48.564;19.272;2023-03-04T00:28:17;52.78;;;25.35;;
77430;SDS011;66498;48.564;19.272;2023-03-04T00:30:43;60.97;;;27.50;;
77430;SDS011;66498;48.564;19.272;2023-03-04T00:33:09;60.45;;;29.42;;
77430;SDS011;66498;48.564;19.272;2023-03-04T00:35:34;70.20;;;34.38;;
77430;SDS011;66498;48.564;19.272;2023-03-04T00:38:00;76.05;;;37.22;;
77430;SDS011;66498;48.564;19.272;2023-03-04T00:40:25;91.47;;;38.92;;
77430;SDS011;66498;48.564;19.272;2023-03-04T00:42:51;83.65;;;36.92;;
77430;SDS011;66498;48.564;19.272;2023-03-04T00:45:17;76.85;;;33.92;;
77430;SDS011;66498;48.564;19.272;2023-03-04T00:47:42;78.70;;;35.50;;
77430;SDS011;66498;48.564;19.272;2023-03-04T00:50:08;83.93;;;37.40;;
77430;SDS011;66498;48.564;19.272;2023-03-04T00:52:34;86.90;;;39.13;;
77430;SDS011;66498;48.564;19.272;2023-03-04T00:55:00;85.35;;;42.25;;
77430;SDS011;66498;48.564;19.272;2023-03-04T00:57:26;84.47;;;40.97;;
77430;SDS011;66498;48.564;19.272;2023-03-04T00:59:51;113.00;;;50.85;;
77430;SDS011;66498;48.564;19.272;2023-03-04T01:02:17;140.50;;;63.20;;
77430;SDS011;66498;48.564;19.272;2023-03-04T01:04:42;187.90;;;84.55;;
77430;SDS011;66498;48.564;19.272;2023-03-04T01:07:08;283.98;;;117.35;;
77430;SDS011;66498;48.564;19.272;2023-03-04T01:09:34;305.70;;;129.00;;
77430;SDS011;66498;48.564;19.272;2023-03-04T01:11:59;335.75;;;149.43;;
77430;SDS011;66498;48.564;19.272;2023-03-04T01:14:25;357.48;;;158.13;;
77430;SDS011;66498;48.564;19.272;2023-03-04T01:16:50;376.50;;;174.63;;
77430;SDS011;66498;48.564;19.272;2023-03-04T01:19:16;344.13;;;159.93;;
77430;SDS011;66498;48.564;19.272;2023-03-04T01:21:41;294.50;;;137.25;;
77430;SDS011;66498;48.564;19.272;2023-03-04T01:24:07;237.55;;;113.43;;
77430;SDS011;66498;48.564;19.272;2023-03-04T01:26:33;199.43;;;93.72;;
77430;SDS011;66498;48.564;19.272;2023-03-04T01:28:58;188.55;;;90.53;;
77430;SDS011;66498;48.564;19.272;2023-03-04T01:31:23;159.82;;;74.75;;
77430;SDS011;66498;48.564;19.272;2023-03-04T01:33:49;150.27;;;67.40;;
77430;SDS011;66498;48.564;19.272;2023-03-04T01:36:14;159.38;;;72.90;;
77430;SDS011;66498;48.564;19.272;2023-03-04T01:38:40;176.88;;;83.10;;
77430;SDS011;66498;48.564;19.272;2023-03-04T01:41:05;185.77;;;85.38;;
77430;SDS011;66498;48.564;19.272;2023-03-04T01:43:31;195.40;;;95.20;;
77430;SDS011;66498;48.564;19.272;2023-03-04T01:45:59;189.82;;;90.25;;
77430;SDS011;66498;48.564;19.272;2023-03-04T01:48:34;190.63;;;92.35;;
77430;SDS011;66498;48.564;19.272;2023-03-04T01:51:03;222.27;;;106.63;;
77430;SDS011;66498;48.564;19.272;2023-03-04T01:53:29;235.63;;;109.15;;
77430;SDS011;66498;48.564;19.272;2023-03-04T01:55:56;270.95;;;125.90;;
77430;SDS011;66498;48.564;19.272;2023-03-04T01:58:28;226.88;;;107.90;;
77430;SDS011;66498;48.564;19.272;2023-03-04T02:00:55;193.73;;;92.90;;
77430;SDS011;66498;48.564;19.272;2023-03-04T02:03:22;196.65;;;90.38;;
77430;SDS011;66498;48.564;19.272;2023-03-04T02:05:49;149.27;;;72.45;;
77430;SDS011;66498;48.564;19.272;2023-03-04T02:08:16;141.88;;;65.50;;
77430;SDS011;66498;48.564;19.272;2023-03-04T02:10:43;175.23;;;83.40;;
77430;SDS011;66498;48.564;19.272;2023-03-04T02:13:10;192.07;;;86.82;;
77430;SDS011;66498;48.564;19.272;2023-03-04T02:15:36;198.15;;;90.25;;
77430;SDS011;66498;48.564;19.272;2023-03-04T02:18:06;195.20;;;88.77;;
77430;SDS011;66498;48.564;19.272;2023-03-04T02:21:21;170.13;;;77.80;;
77430;SDS011;66498;48.564;19.272;2023-03-04T02:28:40;195.90;;;96.80;;
77430;SDS011;66498;48.564;19.272;2023-03-04T02:31:08;189.43;;;92.53;;
77430;SDS011;66498;48.564;19.272;2023-03-04T02:33:47;149.82;;;72.97;;
77430;SDS011;66498;48.564;19.272;2023-03-04T02:36:13;119.43;;;56.78;;
77430;SDS011;66498;48.564;19.272;2023-03-04T02:38:39;70.77;;;37.20;;
77430;SDS011;66498;48.564;19.272;2023-03-04T02:41:04;66.90;;;32.30;;
77430;SDS011;66498;48.564;19.272;2023-03-04T02:43:36;65.28;;;30.40;;
77430;SDS011;66498;48.564;19.272;2023-03-04T02:46:02;100.07;;;45.60;;
77430;SDS011;66498;48.564;19.272;2023-03-04T02:48:27;93.20;;;45.45;;
77430;SDS011;66498;48.564;19.272;2023-03-04T02:50:53;82.88;;;41.63;;
77430;SDS011;66498;48.564;19.272;2023-03-04T02:53:19;80.10;;;41.07;;
77430;SDS011;66498;48.564;19.272;2023-03-04T02:55:45;81.43;;;39.97;;
77430;SDS011;66498;48.564;19.272;2023-03-04T02:58:11;96.03;;;44.88;;
77430;SDS011;66498;48.564;19.272;2023-03-04T03:00:37;92.20;;;44.95;;
77430;SDS011;66498;48.564;19.272;2023-03-04T03:03:03;93.93;;;45.15;;
77430;SDS011;66498;48.564;19.272;2023-03-04T03:05:30;89.90;;;42.72;;
77430;SDS011;66498;48.564;19.272;2023-03-04T03:07:56;85.45;;;43.60;;
77430;SDS011;66498;48.564;19.272;2023-03-04T03:10:22;95.63;;;45.47;;
77430;SDS011;66498;48.564;19.272;2023-03-04T03:12:48;87.47;;;43.77;;
77430;SDS011;66498;48.564;19.272;2023-03-04T03:15:14;85.23;;;40.27;;
77430;SDS011;66498;48.564;19.272;2023-03-04T03:17:40;75.43;;;38.80;;
77430;SDS011;66498;48.564;19.272;2023-03-04T03:20:07;85.00;;;40.00;;
77430;SDS011;66498;48.564;19.272;2023-03-04T03:22:33;89.28;;;43.00;;
77430;SDS011;66498;48.564;19.272;2023-03-04T03:24:59;88.40;;;41.97;;
77430;SDS011;66498;48.564;19.272;2023-03-04T03:27:24;84.97;;;40.55;;
77430;SDS011;66498;48.564;19.272;2023-03-04T03:29:50;92.70;;;43.90;;
77430;SDS011;66498;48.564;19.272;2023-03-04T03:32:15;87.63;;;40.43;;
77430;SDS011;66498;48.564;19.272;2023-03-04T03:34:41;76.47;;;38.13;;
77430;SDS011;66498;48.564;19.272;2023-03-04T03:37:07;84.93;;;40.05;;
77430;SDS011;66498;48.564;19.272;2023-03-04T03:39:33;76.30;;;35.78;;
77430;SDS011;66498;48.564;19.272;2023-03-04T03:41:58;74.47;;;35.47;;
77430;SDS011;66498;48.564;19.272;2023-03-04T03:44:24;69.38;;;33.45;;
77430;SDS011;66498;48.564;19.272;2023-03-04T03:46:49;70.93;;;34.47;;
77430;SDS011;66498;48.564;19.272;2023-03-04T03:49:15;60.80;;;31.92;;
77430;SDS011;66498;48.564;19.272;2023-03-04T03:51:41;78.50;;;34.10;;
77430;SDS011;66498;48.564;19.272;2023-03-04T03:54:07;71.23;;;35.13;;
77430;SDS011;66498;48.564;19.272;2023-03-04T03:56:33;78.33;;;36.13;;
77430;SDS011;66498;48.564;19.272;2023-03-04T03:58:58;64.35;;;32.63;;
77430;SDS011;66498;48.564;19.272;2023-03-04T04:01:24;72.43;;;34.63;;
77430;SDS011;66498;48.564;19.272;2023-03-04T04:03:50;72.68;;;34.95;;
77430;SDS011;66498;48.564;19.272;2023-03-04T04:06:16;68.40;;;32.97;;
77430;SDS011;66498;48.564;19.272;2023-03-04T04:08:41;70.05;;;32.53;;
77430;SDS011;66498;48.564;19.272;2023-03-04T04:11:10;52.67;;;25.57;;
77430;SDS011;66498;48.564;19.272;2023-03-04T04:13:37;58.10;;;28.05;;
77430;SDS011;66498;48.564;19.272;2023-03-04T04:16:03;60.92;;;29.23;;
77430;SDS011;66498;48.564;19.272;2023-03-04T04:18:29;56.83;;;28.85;;
77430;SDS011;66498;48.564;19.272;2023-03-04T04:20:55;52.35;;;26.23;;
77430;SDS011;66498;48.564;19.272;2023-03-04T04:23:20;55.70;;;26.07;;
77430;SDS011;66498;48.564;19.272;2023-03-04T04:25:46;44.40;;;23.65;;
77430;SDS011;66498;48.564;19.272;2023-03-04T04:28:11;48.63;;;22.30;;
77430;SDS011;66498;48.564;19.272;2023-03-04T04:30:37;43.60;;;22.27;;
77430;SDS011;66498;48.564;19.272;2023-03-04T04:33:03;41.87;;;21.67;;
77430;SDS011;66498;48.564;19.272;2023-03-04T04:35:29;51.63;;;23.73;;
77430;SDS011;66498;48.564;19.272;2023-03-04T04:37:59;47.00;;;23.92;;
77430;SDS011;66498;48.564;19.272;2023-03-04T04:40:25;42.90;;;22.77;;
77430;SDS011;66498;48.564;19.272;2023-03-04T04:42:51;48.30;;;24.13;;
77430;SDS011;66498;48.564;19.272;2023-03-04T04:45:16;53.40;;;25.40;;
77430;SDS011;66498;48.564;19.272;2023-03-04T04:47:42;51.70;;;25.07;;
77430;SDS011;66498;48.564;19.272;2023-03-04T04:50:07;44.33;;;22.83;;
77430;SDS011;66498;48.564;19.272;2023-03-04T04:52:33;44.13;;;22.97;;
77430;SDS011;66498;48.564;19.272;2023-03-04T04:54:59;46.90;;;23.37;;
77430;SDS011;66498;48.564;19.272;2023-03-04T04:57:25;46.17;;;22.37;;
77430;SDS011;66498;48.564;19.272;2023-03-04T04:59:50;43.97;;;22.20;;
77430;SDS011;66498;48.564;19.272;2023-03-04T05:02:16;44.53;;;22.70;;
77430;SDS011;66498;48.564;19.272;2023-03-04T05:04:41;47.33;;;23.37;;
77430;SDS011;66498;48.564;19.272;2023-03-04T05:07:07;51.87;;;25.00;;
77430;SDS011;66498;48.564;19.272;2023-03-04T05:09:33;49.72;;;24.30;;
77430;SDS011;66498;48.564;19.272;2023-03-04T05:11:58;49.88;;;24.23;;
77430;SDS011;66498;48.564;19.272;2023-03-04T05:14:24;55.60;;;26.97;;
77430;SDS011;66498;48.564;19.272;2023-03-04T05:16:49;59.10;;;28.47;;
77430;SDS011;66498;48.564;19.272;2023-03-04T05:19:16;52.03;;;27.37;;
77430;SDS011;66498;48.564;19.272;2023-03-04T05:21:42;54.80;;;27.20;;
77430;SDS011;66498;48.564;19.272;2023-03-04T05:24:08;58.40;;;25.73;;
77430;SDS011;66498;48.564;19.272;2023-03-04T05:26:33;53.73;;;26.77;;
77430;SDS011;66498;48.564;19.272;2023-03-04T05:28:59;71.50;;;26.27;;
77430;SDS011;66498;48.564;19.272;2023-03-04T05:31:24;53.50;;;27.23;;
77430;SDS011;66498;48.564;19.272;2023-03-04T05:33:50;66.83;;;29.73;;
77430;SDS011;66498;48.564;19.272;2023-03-04T05:36:15;64.33;;;30.00;;
77430;SDS011;66498;48.564;19.272;2023-03-04T05:38:41;58.60;;;29.90;;
77430;SDS011;66498;48.564;19.272;2023-03-04T05:41:06;60.03;;;28.97;;
77430;SDS011;66498;48.564;19.272;2023-03-04T05:43:33;77.70;;;33.60;;
77430;SDS011;66498;48.564;19.272;2023-03-04T05:46:00;67.90;;;30.47;;
77430;SDS011;66498;48.564;19.272;2023-03-04T05:48:27;65.40;;;29.57;;
77430;SDS011;66498;48.564;19.272;2023-03-04T05:50:56;70.05;;;32.10;;
77430;SDS011;66498;48.564;19.272;2023-03-04T05:53:23;73.80;;;35.37;;
77430;SDS011;66498;48.564;19.272;2023-03-04T05:55:49;65.97;;;34.10;;
77430;SDS011;66498;48.564;19.272;2023-03-04T05:58:15;68.73;;;34.57;;
77430;SDS011;66498;48.564;19.272;2023-03-04T06:00:42;54.90;;;27.23;;
77430;SDS011;66498;48.564;19.272;2023-03-04T06:03:15;58.40;;;27.93;;
77430;SDS011;66498;48.564;19.272;2023-03-04T06:05:41;55.93;;;26.80;;
77430;SDS011;66498;48.564;19.272;2023-03-04T06:08:07;56.00;;;26.03;;
77430;SDS011;66498;48.564;19.272;2023-03-04T06:10:33;59.23;;;26.97;;
77430;SDS011;66498;48.564;19.272;2023-03-04T06:12:59;68.27;;;31.90;;
77430;SDS011;66498;48.564;19.272;2023-03-04T06:15:24;69.07;;;30.97;;
77430;SDS011;66498;48.564;19.272;2023-03-04T06:17:49;71.50;;;30.42;;
77430;SDS011;66498;48.564;19.272;2023-03-04T06:20:15;59.15;;;30.08;;
77430;SDS011;66498;48.564;19.272;2023-03-04T06:22:40;80.83;;;36.87;;
77430;SDS011;66498;48.564;19.272;2023-03-04T06:25:06;75.80;;;33.87;;
77430;SDS011;66498;48.564;19.272;2023-03-04T06:27:32;69.83;;;34.70;;
77430;SDS011;66498;48.564;19.272;2023-03-04T06:29:58;68.57;;;32.50;;
77430;SDS011;66498;48.564;19.272;2023-03-04T06:32:25;95.77;;;41.67;;
77430;SDS011;66498;48.564;19.272;2023-03-04T06:34:51;134.20;;;58.05;;
77430;SDS011;66498;48.564;19.272;2023-03-04T06:37:17;240.30;;;88.32;;
77430;SDS011;66498;48.564;19.272;2023-03-04T06:39:43;106.40;;;45.92;;
77430;SDS011;66498;48.564;19.272;2023-03-04T06:42:08;81.15;;;35.33;;
77430;SDS011;66498;48.564;19.272;2023-03-04T06:44:34;73.65;;;34.60;;
77430;SDS011;66498;48.564;19.272;2023-03-04T06:46:59;76.28;;;33.53;;
77430;SDS011;66498;48.564;19.272;2023-03-04T06:49:25;74.22;;;35.67;;
77430;SDS011;66498;48.564;19.272;2023-03-04T06:51:51;70.60;;;33.38;;
77430;SDS011;66498;48.564;19.272;2023-03-04T06:54:17;63.45;;;32.35;;
77430;SDS011;66498;48.564;19.272;2023-03-04T06:56:42;131.20;;;71.13;;
77430;SDS011;66498;48.564;19.272;2023-03-04T06:59:08;92.38;;;46.28;;
77430;SDS011;66498;48.564;19.272;2023-03-04T07:01:33;85.38;;;43.95;;
77430;SDS011;66498;48.564;19.272;2023-03-04T07:04:00;87.32;;;43.20;;
77430;SDS011;66498;48.564;19.272;2023-03-04T07:06:27;70.80;;;36.17;;
77430;SDS011;66498;48.564;19.272;2023-03-04T07:08:53;62.63;;;31.95;;
77430;SDS011;66498;48.564;19.272;2023-03-04T07:11:19;59.53;;;29.98;;
77430;SDS011;66498;48.564;19.272;2023-03-04T07:13:46;55.92;;;28.98;;
77430;SDS011;66498;48.564;19.272;2023-03-04T07:16:13;59.67;;;30.80;;
77430;SDS011;66498;48.564;19.272;2023-03-04T07:18:41;61.13;;;31.25;;
77430;SDS011;66498;48.564;19.272;2023-03-04T07:21:07;52.75;;;27.30;;
77430;SDS011;66498;48.564;19.272;2023-03-04T07:23:33;58.35;;;29.27;;
77430;SDS011;66498;48.564;19.272;2023-03-04T07:25:59;52.20;;;26.73;;
77430;SDS011;66498;48.564;19.272;2023-03-04T07:28:25;50.92;;;24.75;;
77430;SDS011;66498;48.564;19.272;2023-03-04T07:30:51;46.20;;;22.92;;
77430;SDS011;66498;48.564;19.272;2023-03-04T07:33:16;52.08;;;25.58;;
77430;SDS011;66498;48.564;19.272;2023-03-04T07:35:41;49.13;;;25.67;;
77430;SDS011;66498;48.564;19.272;2023-03-04T07:38:07;49.65;;;25.63;;
77430;SDS011;66498;48.564;19.272;2023-03-04T07:40:33;43.40;;;22.13;;
77430;SDS011;66498;48.564;19.272;2023-03-04T07:42:58;48.10;;;24.08;;
77430;SDS011;66498;48.564;19.272;2023-03-04T07:45:24;45.15;;;23.92;;
77430;SDS011;66498;48.564;19.272;2023-03-04T07:47:50;46.53;;;23.00;;
77430;SDS011;66498;48.564;19.272;2023-03-04T07:50:16;42.95;;;19.67;;
77430;SDS011;66498;48.564;19.272;2023-03-04T07:52:43;45.17;;;21.95;;
77430;SDS011;66498;48.564;19.272;2023-03-04T07:55:11;44.90;;;22.17;;
77430;SDS011;66498;48.564;19.272;2023-03-04T07:57:39;44.28;;;22.10;;
77430;SDS011;66498;48.564;19.272;2023-03-04T08:00:09;46.00;;;22.88;;
77430;SDS011;66498;48.564;19.272;2023-03-04T08:02:37;42.90;;;21.50;;
77430;SDS011;66498;48.564;19.272;2023-03-04T08:05:05;43.75;;;21.17;;
77430;SDS011;66498;48.564;19.272;2023-03-04T08:07:30;44.38;;;22.35;;
77430;SDS011;66498;48.564;19.272;2023-03-04T08:09:56;42.20;;;20.40;;
77430;SDS011;66498;48.564;19.272;2023-03-04T08:12:22;43.33;;;21.48;;
77430;SDS011;66498;48.564;19.272;2023-03-04T08:14:51;41.30;;;20.67;;
77430;SDS011;66498;48.564;19.272;2023-03-04T08:17:16;42.08;;;21.33;;
77430;SDS011;66498;48.564;19.272;2023-03-04T08:19:42;44.75;;;21.23;;
77430;SDS011;66498;48.564;19.272;2023-03-04T08:22:08;44.50;;;21.95;;
77430;SDS011;66498;48.564;19.272;2023-03-04T08:24:34;41.08;;;19.88;;
77430;SDS011;66498;48.564;19.272;2023-03-04T08:26:59;39.58;;;19.20;;
77430;SDS011;66498;48.564;19.272;2023-03-04T08:29:25;39.83;;;19.85;;
77430;SDS011;66498;48.564;19.272;2023-03-04T08:31:51;40.50;;;20.20;;
77430;SDS011;66498;48.564;19.272;2023-03-04T08:34:19;41.58;;;18.95;;
77430;SDS011;66498;48.564;19.272;2023-03-04T08:36:46;42.33;;;21.33;;
77430;SDS011;66498;48.564;19.272;2023-03-04T08:39:12;43.63;;;20.95;;
77430;SDS011;66498;48.564;19.272;2023-03-04T08:41:40;46.80;;;25.13;;
77430;SDS011;66498;48.564;19.272;2023-03-04T08:44:06;50.25;;;27.27;;
77430;SDS011;66498;48.564;19.272;2023-03-04T08:46:34;46.92;;;22.73;;
77430;SDS011;66498;48.564;19.272;2023-03-04T08:49:00;41.80;;;22.60;;
77430;SDS011;66498;48.564;19.272;2023-03-04T08:51:26;49.60;;;29.38;;
77430;SDS011;66498;48.564;19.272;2023-03-04T08:54:02;49.75;;;29.40;;
77430;SDS011;66498;48.564;19.272;2023-03-04T08:56:28;46.10;;;26.20;;
77430;SDS011;66498;48.564;19.272;2023-03-04T08:58:54;41.90;;;23.95;;
77430;SDS011;66498;48.564;19.272;2023-03-04T09:01:19;39.80;;;23.52;;
77430;SDS011;66498;48.564;19.272;2023-03-04T09:03:45;46.15;;;26.63;;
77430;SDS011;66498;48.564;19.272;2023-03-04T09:06:12;40.92;;;24.48;;
77430;SDS011;66498;48.564;19.272;2023-03-04T09:08:39;41.08;;;23.08;;
77430;SDS011;66498;48.564;19.272;2023-03-04T09:11:05;40.58;;;21.50;;
77430;SDS011;66498;48.564;19.272;2023-03-04T09:13:32;42.20;;;20.88;;
77430;SDS011;66498;48.564;19.272;2023-03-04T09:15:59;37.17;;;20.15;;
77430;SDS011;66498;48.564;19.272;2023-03-04T09:18:25;40.08;;;20.52;;
77430;SDS011;66498;48.564;19.272;2023-03-04T09:20:51;44.70;;;21.48;;
77430;SDS011;66498;48.564;19.272;2023-03-04T09:23:18;38.30;;;21.95;;
77430;SDS011;66498;48.564;19.272;2023-03-04T09:25:46;38.08;;;21.80;;
77430;SDS011;66498;48.564;19.272;2023-03-04T09:28:16;36.10;;;21.05;;
77430;SDS011;66498;48.564;19.272;2023-03-04T09:30:43;46.78;;;25.23;;
77430;SDS011;66498;48.564;19.272;2023-03-04T09:33:10;40.47;;;24.00;;
77430;SDS011;66498;48.564;19.272;2023-03-04T09:35:36;43.97;;;27.35;;
77430;SDS011;66498;48.564;19.272;2023-03-04T09:38:04;35.70;;;20.45;;
77430;SDS011;66498;48.564;19.272;2023-03-04T09:40:48;35.35;;;21.45;;
77430;SDS011;66498;48.564;19.272;2023-03-04T09:43:25;35.17;;;20.52;;
77430;SDS011;66498;48.564;19.272;2023-03-04T09:45:54;33.28;;;18.77;;
77430;SDS011;66498;48.564;19.272;2023-03-04T09:48:28;33.33;;;19.48;;
77430;SDS011;66498;48.564;19.272;2023-03-04T09:54:05;32.88;;;17.80;;
77430;SDS011;66498;48.564;19.272;2023-03-04T09:56:36;31.70;;;18.50;;
77430;SDS011;66498;48.564;19.272;2023-03-04T10:01:56;29.88;;;17.50;;
77430;SDS011;66498;48.564;19.272;2023-03-04T10:06:57;26.65;;;15.45;;
77430;SDS011;66498;48.564;19.272;2023-03-04T10:09:27;30.10;;;17.63;;
77430;SDS011;66498;48.564;19.272;2023-03-04T10:12:14;26.97;;;16.27;;
77430;SDS011;66498;48.564;19.272;2023-03-04T10:14:57;25.10;;;15.52;;
77430;SDS011;66498;48.564;19.272;2023-03-04T10:17:44;23.38;;;13.18;;
77430;SDS011;66498;48.564;19.272;2023-03-04T10:23:54;4.72;;;2.63;;
77430;SDS011;66498;48.564;19.272;2023-03-04T10:27:09;7.35;;;4.45;;
77430;SDS011;66498;48.564;19.272;2023-03-04T10:29:42;5.35;;;3.00;;
77430;SDS011;66498;48.564;19.272;2023-03-04T10:32:35;10.27;;;3.85;;
77430;SDS011;66498;48.564;19.272;2023-03-04T10:35:20;7.85;;;3.95;;
77430;SDS011;66498;48.564;19.272;2023-03-04T10:37:51;6.13;;;3.33;;
77430;SDS011;66498;48.564;19.272;2023-03-04T10:40:26;5.50;;;3.08;;
77430;SDS011;66498;48.564;19.272;2023-03-04T10:42:57;4.95;;;2.70;;
77430;SDS011;66498;48.564;19.272;2023-03-04T10:45:28;4.97;;;3.03;;
77430;SDS011;66498;48.564;19.272;2023-03-04T10:48:16;5.40;;;2.90;;
77430;SDS011;66498;48.564;19.272;2023-03-04T10:51:09;8.10;;;4.38;;
77430;SDS011;66498;48.564;19.272;2023-03-04T10:54:04;5.63;;;3.55;;
77430;SDS011;66498;48.564;19.272;2023-03-04T10:59:48;5.32;;;2.55;;
77430;SDS011;66498;48.564;19.272;2023-03-04T11:02:42;6.70;;;4.10;;
77430;SDS011;66498;48.564;19.272;2023-03-04T11:05:18;8.15;;;3.95;;
77430;SDS011;66498;48.564;19.272;2023-03-04T11:07:59;11.02;;;4.15;;
77430;SDS011;66498;48.564;19.272;2023-03-04T11:10:40;8.73;;;4.13;;
77430;SDS011;66498;48.564;19.272;2023-03-04T11:15:59;6.80;;;4.07;;
77430;SDS011;66498;48.564;19.272;2023-03-04T11:21:14;4.72;;;2.72;;
77430;SDS011;66498;48.564;19.272;2023-03-04T11:33:35;7.22;;;4.22;;
77430;SDS011;66498;48.564;19.272;2023-03-04T11:36:17;3.97;;;2.63;;
77430;SDS011;66498;48.564;19.272;2023-03-04T11:39:04;6.50;;;3.25;;
77430;SDS011;66498;48.564;19.272;2023-03-04T11:41:44;8.05;;;4.70;;
77430;SDS011;66498;48.564;19.272;2023-03-04T11:44:38;8.88;;;5.03;;
77430;SDS011;66498;48.564;19.272;2023-03-04T11:47:37;9.23;;;4.30;;
77430;SDS011;66498;48.564;19.272;2023-03-04T11:50:34;5.60;;;2.97;;
77430;SDS011;66498;48.564;19.272;2023-03-04T11:56:19;7.57;;;4.35;;
77430;SDS011;66498;48.564;19.272;2023-03-04T12:10:23;6.28;;;3.83;;
77430;SDS011;66498;48.564;19.272;2023-03-04T12:24:17;5.47;;;2.88;;
77430;SDS011;66498;48.564;19.272;2023-03-04T12:29:59;4.15;;;2.47;;
77430;SDS011;66498;48.564;19.272;2023-03-04T12:35:40;6.38;;;3.92;;
77430;SDS011;66498;48.564;19.272;2023-03-04T12:44:58;7.00;;;3.00;;
77430;SDS011;66498;48.564;19.272;2023-03-04T12:49:58;5.10;;;3.22;;
77430;SDS011;66498;48.564;19.272;2023-03-04T12:52:54;6.38;;;3.42;;
77430;SDS011;66498;48.564;19.272;2023-03-04T12:55:44;7.05;;;4.30;;
77430;SDS011;66498;48.564;19.272;2023-03-04T12:58:23;10.40;;;5.13;;
77430;SDS011;66498;48.564;19.272;2023-03-04T13:01:10;9.60;;;4.82;;
77430;SDS011;66498;48.564;19.272;2023-03-04T13:09:24;7.70;;;4.55;;
77430;SDS011;66498;48.564;19.272;2023-03-04T13:12:13;6.32;;;3.83;;
77430;SDS011;66498;48.564;19.272;2023-03-04T13:15:16;8.57;;;4.18;;
77430;SDS011;66498;48.564;19.272;2023-03-04T13:17:44;9.40;;;5.63;;
77430;SDS011;66498;48.564;19.272;2023-03-04T13:25:42;8.32;;;5.72;;
77430;SDS011;66498;48.564;19.272;2023-03-04T13:28:27;9.65;;;5.93;;
77430;SDS011;66498;48.564;19.272;2023-03-04T13:33:48;12.80;;;7.22;;
77430;SDS011;66498;48.564;19.272;2023-03-04T13:36:25;11.68;;;6.97;;
77430;SDS011;66498;48.564;19.272;2023-03-04T13:41:50;12.30;;;6.78;;
77430;SDS011;66498;48.564;19.272;2023-03-04T13:44:31;12.48;;;6.72;;
77430;SDS011;66498;48.564;19.272;2023-03-04T13:46:57;10.68;;;6.22;;
77430;SDS011;66498;48.564;19.272;2023-03-04T13:49:35;11.68;;;6.38;;
77430;SDS011;66498;48.564;19.272;2023-03-04T13:52:26;11.40;;;6.60;;
77430;SDS011;66498;48.564;19.272;2023-03-04T13:57:56;8.40;;;5.45;;
77430;SDS011;66498;48.564;19.272;2023-03-04T14:00:22;11.93;;;7.18;;
77430;SDS011;66498;48.564;19.272;2023-03-04T14:02:49;15.68;;;8.27;;
77430;SDS011;66498;48.564;19.272;2023-03-04T14:05:14;11.68;;;6.10;;
77430;SDS011;66498;48.564;19.272;2023-03-04T14:07:41;12.95;;;7.43;;
77430;SDS011;66498;48.564;19.272;2023-03-04T14:12:47;14.45;;;8.32;;
77430;SDS011;66498;48.564;19.272;2023-03-04T14:15:26;13.02;;;8.18;;
77430;SDS011;66498;48.564;19.272;2023-03-04T14:17:54;13.10;;;7.80;;
77430;SDS011;66498;48.564;19.272;2023-03-04T14:23:01;13.98;;;8.45;;
77430;SDS011;66498;48.564;19.272;2023-03-04T14:25:30;15.57;;;8.95;;
77430;SDS011;66498;48.564;19.272;2023-03-04T14:28:17;16.52;;;10.18;;
77430;SDS011;66498;48.564;19.272;2023-03-04T14:30:51;16.23;;;9.95;;
77430;SDS011;66498;48.564;19.272;2023-03-04T14:35:48;14.60;;;8.82;;
77430;SDS011;66498;48.564;19.272;2023-03-04T14:38:27;17.23;;;9.07;;
77430;SDS011;66498;48.564;19.272;2023-03-04T14:41:38;21.52;;;12.30;;
77430;SDS011;66498;48.564;19.272;2023-03-04T14:49:43;18.15;;;9.18;;
77430;SDS011;66498;48.564;19.272;2023-03-04T14:55:18;17.15;;;9.00;;
77430;SDS011;66498;48.564;19.272;2023-03-04T14:58:18;14.73;;;7.68;;
77430;SDS011;66498;48.564;19.272;2023-03-04T15:00:47;17.15;;;9.55;;
77430;SDS011;66498;48.564;19.272;2023-03-04T15:03:24;20.15;;;12.73;;
77430;SDS011;66498;48.564;19.272;2023-03-04T15:05:54;13.10;;;7.72;;
77430;SDS011;66498;48.564;19.272;2023-03-04T15:08:32;17.17;;;9.68;;
77430;SDS011;66498;48.564;19.272;2023-03-04T15:11:04;18.02;;;10.90;;
77430;SDS011;66498;48.564;19.272;2023-03-04T15:16:11;15.60;;;9.57;;
77430;SDS011;66498;48.564;19.272;2023-03-04T15:18:39;21.80;;;12.05;;
77430;SDS011;66498;48.564;19.272;2023-03-04T15:26:31;21.98;;;11.35;;
77430;SDS011;66498;48.564;19.272;2023-03-04T15:28:58;22.20;;;12.63;;
77430;SDS011;66498;48.564;19.272;2023-03-04T15:31:26;22.23;;;12.73;;
77430;SDS011;66498;48.564;19.272;2023-03-04T15:33:55;20.17;;;11.93;;
77430;SDS011;66498;48.564;19.272;2023-03-04T15:36:21;25.02;;;14.65;;
77430;SDS011;66498;48.564;19.272;2023-03-04T15:38:49;23.55;;;12.60;;
77430;SDS011;66498;48.564;19.272;2023-03-04T15:41:23;24.05;;;12.43;;
77430;SDS011;66498;48.564;19.272;2023-03-04T15:43:51;26.27;;;14.15;;
77430;SDS011;66498;48.564;19.272;2023-03-04T15:46:18;23.00;;;13.40;;
77430;SDS011;66498;48.564;19.272;2023-03-04T15:48:44;25.83;;;15.35;;
77430;SDS011;66498;48.564;19.272;2023-03-04T15:51:18;25.85;;;12.02;;
77430;SDS011;66498;48.564;19.272;2023-03-04T15:53:47;27.52;;;14.55;;
77430;SDS011;66498;48.564;19.272;2023-03-04T15:56:17;24.80;;;13.27;;
77430;SDS011;66498;48.564;19.272;2023-03-04T15:58:51;29.83;;;13.85;;
77430;SDS011;66498;48.564;19.272;2023-03-04T16:01:20;21.80;;;10.52;;
77430;SDS011;66498;48.564;19.272;2023-03-04T16:03:53;22.67;;;13.10;;
77430;SDS011;66498;48.564;19.272;2023-03-04T16:06:20;28.17;;;15.15;;
77430;SDS011;66498;48.564;19.272;2023-03-04T16:08:50;26.35;;;14.00;;
77430;SDS011;66498;48.564;19.272;2023-03-04T16:11:58;30.23;;;15.45;;
77430;SDS011;66498;48.564;19.272;2023-03-04T16:14:38;33.15;;;17.40;;
77430;SDS011;66498;48.564;19.272;2023-03-04T16:17:08;29.52;;;16.02;;
77430;SDS011;66498;48.564;19.272;2023-03-04T16:19:41;27.25;;;15.00;;
77430;SDS011;66498;48.564;19.272;2023-03-04T16:22:12;32.50;;;17.58;;
77430;SDS011;66498;48.564;19.272;2023-03-04T16:24:50;20.75;;;11.27;;
77430;SDS011;66498;48.564;19.272;2023-03-04T16:27:19;31.52;;;16.52;;